createdAt,value
2022-09-14T00:01:14.285Z,99282.34
2022-09-14T00:03:42.818Z,99271.16
2022-09-14T00:06:11.954Z,99274.88
2022-09-14T00:08:39.901Z,99278.00
2022-09-14T00:11:09.219Z,99265.94
2022-09-14T00:13:37.362Z,99278.53
2022-09-14T00:16:06.949Z,99276.47
2022-09-14T00:18:35.406Z,99272.78
2022-09-14T00:21:05.619Z,99272.97
2022-09-14T00:23:33.510Z,99270.31
2022-09-14T00:26:04.300Z,99269.34
2022-09-14T00:28:31.804Z,99269.72
2022-09-14T00:30:59.322Z,99269.91
2022-09-14T00:33:26.881Z,99277.63
2022-09-14T00:35:54.330Z,99266.41
2022-09-14T00:38:23.186Z,99262.28
2022-09-14T00:40:58.286Z,99253.81
2022-09-14T00:43:26.130Z,99246.56
2022-09-14T00:45:54.053Z,99253.88
2022-09-14T00:48:24.128Z,99248.28
2022-09-14T00:50:51.833Z,99241.66
2022-09-14T00:53:20.010Z,99236.72
2022-09-14T00:55:48.916Z,99236.78
2022-09-14T00:58:16.373Z,99248.00
2022-09-14T01:00:43.848Z,99230.72
2022-09-14T01:03:11.441Z,99232.97
2022-09-14T01:05:49.861Z,99223.34
2022-09-14T01:08:26.594Z,99236.84
2022-09-14T01:11:04.271Z,99219.47
2022-09-14T01:13:40.370Z,99228.56
2022-09-14T01:16:12.770Z,99229.28
2022-09-14T01:18:44.716Z,99215.19
2022-09-14T01:21:15.471Z,99213.06
2022-09-14T01:23:48.538Z,99212.50
2022-09-14T01:26:45.144Z,99209.19
2022-09-14T01:29:16.714Z,99206.19
2022-09-14T01:31:48.977Z,99205.06
2022-09-14T01:34:24.019Z,99207.03
2022-09-14T01:36:55.549Z,99212.06
2022-09-14T01:39:23.663Z,99207.06
2022-09-14T01:41:51.711Z,99205.72
2022-09-14T01:44:23.733Z,99202.00
2022-09-14T01:46:53.806Z,99203.75
2022-09-14T01:49:28.273Z,99194.91
2022-09-14T01:51:59.666Z,99192.78
2022-09-14T01:54:29.989Z,99194.56
2022-09-14T01:57:00.687Z,99192.69
2022-09-14T01:59:32.739Z,99193.16
2022-09-14T02:02:04.678Z,99202.69
2022-09-14T02:04:37.470Z,99194.53
2022-09-14T02:07:05.077Z,99192.78
2022-09-14T02:09:32.617Z,99191.00
2022-09-14T02:12:00.873Z,99189.16
2022-09-14T02:14:30.275Z,99193.44
2022-09-14T02:16:58.018Z,99188.09
2022-09-14T02:19:27.418Z,99184.31
2022-09-14T02:21:54.880Z,99184.16
2022-09-14T02:24:23.048Z,99175.16
2022-09-14T02:26:52.222Z,99183.81
2022-09-14T02:29:19.773Z,99177.88
2022-09-14T02:31:59.547Z,99178.16
2022-09-14T02:34:31.840Z,99175.28
2022-09-14T02:37:02.901Z,99171.41
2022-09-14T02:39:37.077Z,99173.56
2022-09-14T02:42:13.278Z,99158.16
2022-09-14T02:44:43.781Z,99163.25
2022-09-14T02:47:28.401Z,99149.97
2022-09-14T02:49:59.517Z,99147.63
2022-09-14T02:52:32.817Z,99142.72
2022-09-14T02:55:04.556Z,99143.75
2022-09-14T02:57:32.010Z,99135.19
2022-09-14T02:59:59.591Z,99123.41
2022-09-14T03:02:28.490Z,99120.97
2022-09-14T03:04:56.497Z,99130.84
2022-09-14T03:07:24.015Z,99133.47
2022-09-14T03:09:51.478Z,99130.81
2022-09-14T03:12:18.922Z,99130.72
2022-09-14T03:14:46.406Z,99134.47
2022-09-14T03:17:13.841Z,99136.53
2022-09-14T03:19:42.635Z,99137.78
2022-09-14T03:22:10.070Z,99138.00
2022-09-14T03:24:37.517Z,99143.84
2022-09-14T03:27:05.437Z,99135.44
2022-09-14T03:29:32.894Z,99139.13
2022-09-14T03:32:00.573Z,99145.81
2022-09-14T03:34:28.041Z,99133.78
2022-09-14T03:36:56.842Z,99133.78
2022-09-14T03:39:24.846Z,99136.59
2022-09-14T03:41:52.370Z,99125.06
2022-09-14T03:44:19.862Z,99119.13
2022-09-14T03:46:47.718Z,99116.66
2022-09-14T03:49:15.239Z,99121.47
2022-09-14T03:51:42.706Z,99122.31
2022-09-14T03:54:11.542Z,99123.72
2022-09-14T03:56:39.031Z,99117.72
2022-09-14T03:59:09.110Z,99120.41
2022-09-14T04:01:37.988Z,99116.44
2022-09-14T04:04:05.578Z,99113.53
2022-09-14T04:06:33.531Z,99110.13
2022-09-14T04:09:00.978Z,99111.84
2022-09-14T04:11:31.346Z,99116.81
2022-09-14T04:14:02.146Z,99111.47
2022-09-14T04:16:30.236Z,99108.22
2022-09-14T04:18:57.867Z,99101.28
2022-09-14T04:21:26.481Z,99099.81
2022-09-14T04:26:44.184Z,99101.81
2022-09-14T04:29:12.268Z,99106.53
2022-09-14T04:31:40.009Z,99107.81
2022-09-14T04:34:07.694Z,99112.34
2022-09-14T04:36:35.178Z,99112.63
2022-09-14T04:39:03.530Z,99106.84
2022-09-14T04:41:32.370Z,99112.41
2022-09-14T04:44:01.385Z,99114.06
2022-09-14T04:46:31.209Z,99112.31
2022-09-14T04:48:59.005Z,99097.84
2022-09-14T04:51:28.745Z,99106.53
2022-09-14T04:53:57.837Z,99112.94
2022-09-14T04:56:26.223Z,99098.97
2022-09-14T04:58:55.027Z,99093.16
2022-09-14T05:01:25.632Z,99089.84
2022-09-14T05:03:54.101Z,99084.41
2022-09-14T05:06:24.443Z,99083.44
2022-09-14T05:08:53.249Z,99073.66
2022-09-14T05:11:22.481Z,99078.28
2022-09-14T05:13:50.873Z,99078.59
2022-09-14T05:16:20.339Z,99091.84
2022-09-14T05:18:49.674Z,99095.66
2022-09-14T05:21:19.396Z,99086.13
2022-09-14T05:23:47.439Z,99087.53
2022-09-14T05:26:15.506Z,99078.75
2022-09-14T05:28:43.063Z,99086.13
2022-09-14T05:31:13.447Z,99085.97
2022-09-14T05:33:41.106Z,99088.44
2022-09-14T05:36:11.451Z,99089.38
2022-09-14T05:38:40.332Z,99091.84
2022-09-14T05:41:09.436Z,99092.88
2022-09-14T05:43:36.921Z,99084.47
2022-09-14T05:46:09.018Z,99083.59
2022-09-14T05:48:38.136Z,99081.00
2022-09-14T05:51:07.648Z,99075.13
2022-09-14T05:53:36.753Z,99077.41
2022-09-14T05:56:06.088Z,99081.44
2022-09-14T05:58:33.870Z,99077.63
2022-09-14T06:01:08.158Z,99081.41
2022-09-14T06:03:35.862Z,99074.59
2022-09-14T06:06:03.992Z,99076.31
2022-09-14T06:08:31.509Z,99072.16
2022-09-14T06:11:04.549Z,99064.19
2022-09-14T06:13:32.066Z,99047.59
2022-09-14T06:16:02.902Z,99065.03
2022-09-14T06:18:31.917Z,99062.41
2022-09-14T06:20:59.447Z,99061.94
2022-09-14T06:23:27.994Z,99061.59
2022-09-14T06:25:55.837Z,99064.97
2022-09-14T06:28:25.394Z,99070.13
2022-09-14T06:30:53.512Z,99060.91
2022-09-14T06:33:21.436Z,99062.56
2022-09-14T06:35:58.311Z,99051.94
2022-09-14T06:38:25.983Z,99055.34
2022-09-14T06:40:55.797Z,99052.41
2022-09-14T06:43:25.043Z,99051.59
2022-09-14T06:45:59.925Z,99054.06
2022-09-14T06:48:27.776Z,99044.72
2022-09-14T06:50:55.252Z,99059.66
2022-09-14T06:53:22.882Z,99057.31
2022-09-14T06:55:50.441Z,99062.47
2022-09-14T06:58:18.033Z,99063.03
2022-09-14T07:00:46.890Z,99060.34
2022-09-14T07:03:14.468Z,99068.41
2022-09-14T07:05:41.965Z,99056.00
2022-09-14T07:08:12.308Z,99065.03
2022-09-14T07:10:40.101Z,99069.94
2022-09-14T07:13:07.581Z,99071.66
2022-09-14T07:15:35.046Z,99065.03
2022-09-14T07:18:04.227Z,99072.09
2022-09-14T07:20:31.736Z,99059.50
2022-09-14T07:22:59.223Z,99072.09
2022-09-14T07:25:26.690Z,99076.84
2022-09-14T07:27:54.217Z,99085.03
2022-09-14T07:30:24.847Z,99075.94
2022-09-14T07:32:52.466Z,99078.34
2022-09-14T07:35:24.967Z,99080.03
2022-09-14T07:37:52.446Z,99076.41
2022-09-14T07:40:19.938Z,99070.25
2022-09-14T07:42:54.349Z,99070.13
2022-09-14T07:45:24.890Z,99067.69
2022-09-14T07:47:52.374Z,99068.97
2022-09-14T07:50:21.569Z,99070.81
2022-09-14T07:52:50.660Z,99066.91
2022-09-14T07:55:18.890Z,99059.91
2022-09-14T07:57:56.254Z,99061.13
2022-09-14T08:00:26.277Z,99069.41
2022-09-14T08:02:55.051Z,99078.34
2022-09-14T08:05:24.394Z,99079.59
2022-09-14T08:07:55.038Z,99087.53
2022-09-14T08:10:22.710Z,99081.19
2022-09-14T08:12:51.835Z,99073.22
2022-09-14T08:15:19.514Z,99073.97
2022-09-14T08:17:47.170Z,99069.41
2022-09-14T08:20:16.298Z,99083.63
2022-09-14T08:22:45.159Z,99074.84
2022-09-14T08:25:13.153Z,99073.53
2022-09-14T08:27:40.601Z,99081.31
2022-09-14T08:30:10.047Z,99074.66
2022-09-14T08:32:37.523Z,99067.75
2022-09-14T08:35:07.065Z,99064.31
2022-09-14T08:37:34.486Z,99056.00
2022-09-14T08:40:04.818Z,99068.84
2022-09-14T08:42:32.322Z,99074.78
2022-09-14T08:45:06.349Z,99066.19
2022-09-14T08:47:38.878Z,99061.34
2022-09-14T08:50:13.175Z,99051.66
2022-09-14T08:52:43.421Z,99039.25
2022-09-14T08:55:23.035Z,99043.66
2022-09-14T08:57:55.310Z,99045.91
2022-09-14T09:00:24.777Z,99042.88
2022-09-14T09:03:08.766Z,99043.78
2022-09-14T09:05:41.352Z,99045.47
2022-09-14T09:08:16.804Z,99054.31
2022-09-14T09:10:46.339Z,99049.66
2022-09-14T09:13:18.768Z,99041.69
2022-09-14T09:15:49.173Z,99047.63
2022-09-14T09:18:20.110Z,99044.00
2022-09-14T09:20:51.720Z,99032.56
2022-09-14T09:23:21.209Z,99048.66
2022-09-14T09:25:57.291Z,99049.78
2022-09-14T09:28:25.914Z,99050.81
2022-09-14T09:30:55.159Z,99054.69
2022-09-14T09:33:32.115Z,99056.56
2022-09-14T09:36:16.664Z,99058.09
2022-09-14T09:38:45.233Z,99048.25
2022-09-14T09:41:17.822Z,99051.41
2022-09-14T09:44:00.123Z,99046.81
2022-09-14T09:46:29.422Z,99038.63
2022-09-14T09:48:57.514Z,99045.13
2022-09-14T09:51:29.869Z,99036.81
2022-09-14T09:54:07.020Z,99021.13
2022-09-14T09:56:39.473Z,99018.69
2022-09-14T09:59:23.425Z,99010.88
2022-09-14T10:01:52.263Z,99016.19
2022-09-14T10:04:22.262Z,99024.50
2022-09-14T10:06:51.164Z,99018.41
2022-09-14T10:09:23.027Z,99022.31
2022-09-14T10:11:59.252Z,99023.13
2022-09-14T10:14:31.251Z,99024.81
2022-09-14T10:17:09.369Z,99027.91
2022-09-14T10:19:37.678Z,99028.97
2022-09-14T10:22:17.523Z,99021.53
2022-09-14T10:24:54.097Z,99022.69
2022-09-14T10:27:41.285Z,99021.69
2022-09-14T10:30:15.259Z,99027.41
2022-09-14T10:32:45.839Z,99027.97
2022-09-14T10:35:15.267Z,99027.41
2022-09-14T10:37:53.912Z,99027.22
2022-09-14T10:40:25.429Z,99029.16
2022-09-14T10:43:04.856Z,99027.41
2022-09-14T10:45:36.899Z,99023.44
2022-09-14T10:48:15.816Z,99016.13
2022-09-14T10:50:53.350Z,98999.63
2022-09-14T10:53:32.201Z,99009.03
2022-09-14T10:56:03.657Z,99011.13
2022-09-14T10:58:41.984Z,99003.56
2022-09-14T11:01:26.601Z,99000.50
2022-09-14T11:04:07.255Z,99003.19
2022-09-14T11:06:45.201Z,99006.59
2022-09-14T11:09:18.587Z,99008.63
2022-09-14T11:12:02.669Z,98998.28
2022-09-14T11:14:42.290Z,98996.31
2022-09-14T11:17:26.953Z,98997.50
2022-09-14T11:20:00.696Z,99003.59
2022-09-14T11:22:33.612Z,99012.03
2022-09-14T11:25:04.858Z,99016.81
2022-09-14T11:27:35.497Z,99010.41
2022-09-14T11:30:07.122Z,99014.72
2022-09-14T11:32:36.979Z,99016.53
2022-09-14T11:35:16.471Z,99017.00
2022-09-14T11:37:48.309Z,99016.13
2022-09-14T11:40:25.538Z,99022.06
2022-09-14T11:42:57.984Z,99018.06
2022-09-14T11:45:30.096Z,99017.31
2022-09-14T11:48:41.436Z,99011.78
2022-09-14T11:51:05.661Z,99011.84
2022-09-14T11:53:33.630Z,99005.41
2022-09-14T11:56:01.665Z,99005.78
2022-09-14T11:58:30.778Z,99009.06
2022-09-14T12:01:31.237Z,99008.91
2022-09-14T12:04:12.352Z,99006.88
2022-09-14T12:06:54.981Z,99008.13
2022-09-14T12:09:41.769Z,99006.44
2022-09-14T12:12:31.545Z,99014.34
2022-09-14T12:15:03.661Z,99009.56
2022-09-14T12:17:41.243Z,99002.94
2022-09-14T12:20:35.269Z,98997.38
2022-09-14T12:23:11.805Z,99001.31
2022-09-14T12:25:40.216Z,99001.31
2022-09-14T12:28:47.686Z,98998.38
2022-09-14T12:31:33.397Z,98997.91
2022-09-14T12:34:16.302Z,98995.25
2022-09-14T12:37:31.906Z,98998.53
2022-09-14T12:40:31.257Z,98986.47
2022-09-14T12:43:49.064Z,98993.22
2022-09-14T12:46:39.780Z,98982.97
2022-09-14T12:49:25.367Z,98983.84
2022-09-14T12:51:53.030Z,98986.28
2022-09-14T12:54:28.230Z,98982.56
2022-09-14T12:57:07.829Z,98983.72
2022-09-14T12:59:42.273Z,98983.53
2022-09-14T13:02:26.290Z,98984.19
2022-09-14T13:04:54.206Z,98992.75
2022-09-14T13:07:22.749Z,98987.38
2022-09-14T13:09:52.508Z,98982.19
2022-09-14T13:12:25.217Z,98976.41
2022-09-14T13:14:55.635Z,98979.97
2022-09-14T13:17:30.393Z,98975.72
2022-09-14T13:20:00.370Z,98964.34
2022-09-14T13:22:29.292Z,98961.66
2022-09-14T13:24:57.153Z,98956.16
2022-09-14T13:27:27.861Z,98955.94
2022-09-14T13:30:00.843Z,98946.31
2022-09-14T13:32:28.641Z,98956.81
2022-09-14T13:34:56.241Z,98953.09
2022-09-14T13:37:24.566Z,98948.19
2022-09-14T13:39:53.504Z,98955.78
2022-09-14T13:42:22.008Z,98952.28
2022-09-14T13:44:51.445Z,98950.06
2022-09-14T13:47:20.790Z,98944.03
2022-09-14T13:49:50.281Z,98941.19
2022-09-14T13:52:19.704Z,98940.03
2022-09-14T13:54:47.499Z,98942.16
2022-09-14T13:57:16.887Z,98933.28
2022-09-14T14:00:20.935Z,98932.56
2022-09-14T14:02:50.763Z,98926.28
2022-09-14T14:05:23.833Z,98917.63
2022-09-14T14:07:51.857Z,98916.66
2022-09-14T14:10:26.110Z,98916.41
2022-09-14T14:12:53.778Z,98910.25
2022-09-14T14:15:49.705Z,98909.56
2022-09-14T14:18:33.168Z,98905.91
2022-09-14T14:21:14.903Z,98910.81
2022-09-14T14:23:56.790Z,98907.63
2022-09-14T14:26:30.836Z,98895.47
2022-09-14T14:29:11.600Z,98896.97
2022-09-14T14:31:40.558Z,98906.69
2022-09-14T14:34:13.937Z,98901.72
2022-09-14T14:36:41.440Z,98895.31
2022-09-14T14:39:08.953Z,98894.97
2022-09-14T14:41:36.634Z,98890.84
2022-09-14T14:44:04.910Z,98894.00
2022-09-14T14:46:32.421Z,98901.94
2022-09-14T14:49:01.301Z,98902.19
2022-09-14T14:51:28.792Z,98899.53
2022-09-14T14:53:56.297Z,98889.28
2022-09-14T14:56:23.769Z,98891.47
2022-09-14T14:58:51.403Z,98895.41
2022-09-14T15:01:19.004Z,98896.97
2022-09-14T15:03:46.869Z,98894.75
2022-09-14T15:06:20.022Z,98898.81
2022-09-14T15:08:48.381Z,98900.75
2022-09-14T15:11:17.788Z,98903.38
2022-09-14T15:13:45.558Z,98908.69
2022-09-14T15:16:14.744Z,98902.81
2022-09-14T15:18:42.799Z,98891.50
2022-09-14T15:21:10.597Z,98891.41
2022-09-14T15:23:39.894Z,98893.44
2022-09-14T15:26:07.711Z,98889.63
2022-09-14T15:28:38.379Z,98886.59
2022-09-14T15:31:07.935Z,98893.28
2022-09-14T15:33:35.638Z,98888.75
2022-09-14T15:36:03.620Z,98892.53
2022-09-14T15:38:31.282Z,98894.28
2022-09-14T15:41:00.089Z,98882.78
2022-09-14T15:43:27.615Z,98884.31
2022-09-14T15:45:55.443Z,98882.75
2022-09-14T15:48:23.042Z,98874.34
2022-09-14T15:50:50.508Z,98883.00
2022-09-14T15:53:18.331Z,98876.06
2022-09-14T15:55:47.051Z,98871.00
2022-09-14T15:58:15.841Z,98860.06
2022-09-14T16:00:44.835Z,98870.88
2022-09-14T16:03:12.748Z,98868.47
2022-09-14T16:05:40.442Z,98864.06
2022-09-14T16:08:08.253Z,98873.97
2022-09-14T16:10:35.706Z,98862.81
2022-09-14T16:13:03.164Z,98869.66
2022-09-14T16:15:31.976Z,98863.47
2022-09-14T16:17:59.503Z,98874.13
2022-09-14T16:20:26.941Z,98877.53
2022-09-14T16:22:54.457Z,98875.34
2022-09-14T16:25:21.990Z,98857.94
2022-09-14T16:27:49.779Z,98861.94
2022-09-14T16:30:17.391Z,98863.97
2022-09-14T16:32:46.443Z,98871.63
2022-09-14T16:35:13.947Z,98863.97
2022-09-14T16:37:41.385Z,98862.66
2022-09-14T16:40:09.667Z,98859.34
2022-09-14T16:42:37.246Z,98864.13
2022-09-14T16:45:05.285Z,98857.94
2022-09-14T16:47:33.144Z,98852.88
2022-09-14T16:50:01.937Z,98852.16
2022-09-14T16:52:29.873Z,98847.66
2022-09-14T16:54:57.322Z,98846.69
2022-09-14T16:57:29.825Z,98847.28
2022-09-14T16:59:57.277Z,98842.97
2022-09-14T17:02:24.773Z,98860.38
2022-09-14T17:04:52.722Z,98855.16
2022-09-14T17:07:23.634Z,98853.53
2022-09-14T17:09:51.317Z,98854.53
2022-09-14T17:12:18.777Z,98854.28
2022-09-14T17:14:47.698Z,98845.25
2022-09-14T17:17:15.592Z,98841.63
2022-09-14T17:19:43.847Z,98845.56
2022-09-14T17:22:11.477Z,98850.72
2022-09-14T17:24:40.591Z,98863.03
2022-09-14T17:27:08.452Z,98858.88
2022-09-14T17:29:39.369Z,98856.31
2022-09-14T17:32:10.153Z,98869.63
2022-09-14T17:34:40.085Z,98857.72
2022-09-14T17:37:07.525Z,98874.84
2022-09-14T17:39:34.956Z,98879.75
2022-09-14T17:42:03.946Z,98879.06
2022-09-14T17:44:31.796Z,98880.00
2022-09-14T17:46:59.304Z,98873.31
2022-09-14T17:49:26.746Z,98874.03
2022-09-14T17:51:54.150Z,98877.97
2022-09-14T17:54:21.816Z,98873.78
2022-09-14T17:56:49.538Z,98873.66
2022-09-14T17:59:19.897Z,98878.59
2022-09-14T18:01:47.440Z,98878.28
2022-09-14T18:04:15.748Z,98867.25
2022-09-14T18:06:45.447Z,98870.69
2022-09-14T18:09:15.003Z,98866.13
2022-09-14T18:11:42.858Z,98874.19
2022-09-14T18:14:12.596Z,98886.47
2022-09-14T18:16:42.056Z,98879.78
2022-09-14T18:19:11.933Z,98882.56
2022-09-14T18:21:39.394Z,98888.63
2022-09-14T18:24:07.497Z,98897.09
2022-09-14T18:26:35.227Z,98895.88
2022-09-14T18:29:03.563Z,98897.25
2022-09-14T18:31:31.353Z,98910.09
2022-09-14T18:34:00.988Z,98909.66
2022-09-14T18:36:29.937Z,98913.47
2022-09-14T18:38:57.994Z,98919.72
2022-09-14T18:41:31.130Z,98913.44
2022-09-14T18:43:59.211Z,98923.69
2022-09-14T18:46:28.388Z,98925.69
2022-09-14T18:48:57.692Z,98919.59
2022-09-14T18:51:27.781Z,98921.63
2022-09-14T18:53:58.800Z,98915.72
2022-09-14T18:56:26.650Z,98916.78
2022-09-14T18:58:54.439Z,98921.56
2022-09-14T19:01:25.892Z,98915.91
2022-09-14T19:03:55.855Z,98910.94
2022-09-14T19:06:23.925Z,98915.97
2022-09-14T19:08:53.178Z,98916.66
2022-09-14T19:11:22.693Z,98921.09
2022-09-14T19:13:56.237Z,98914.78
2022-09-14T19:16:25.549Z,98920.59
2022-09-14T19:18:54.597Z,98921.41
2022-09-14T19:21:25.254Z,98915.25
2022-09-14T19:24:04.655Z,98912.44
2022-09-14T19:26:36.303Z,98919.88
2022-09-14T19:29:07.651Z,98917.28
2022-09-14T19:31:36.576Z,98927.81
2022-09-14T19:34:05.907Z,98928.09
2022-09-14T19:36:34.857Z,98919.75
2022-09-14T19:39:05.075Z,98927.41
2022-09-14T19:41:34.347Z,98924.69
2022-09-14T19:44:03.310Z,98926.91
2022-09-14T19:46:32.319Z,98924.00
2022-09-14T19:49:00.043Z,98932.59
2022-09-14T19:51:28.918Z,98927.25
2022-09-14T19:53:57.641Z,98934.84
2022-09-14T19:56:28.176Z,98929.66
2022-09-14T19:59:01.459Z,98926.94
2022-09-14T20:01:30.434Z,98924.84
2022-09-14T20:03:58.502Z,98928.88
2022-09-14T20:06:29.495Z,98919.09
2022-09-14T20:08:59.865Z,98918.50
2022-09-14T20:11:30.040Z,98913.16
2022-09-14T20:13:59.917Z,98922.25
2022-09-14T20:16:29.671Z,98915.06
2022-09-14T20:18:58.485Z,98927.44
2022-09-14T20:21:27.220Z,98932.19
2022-09-14T20:24:14.489Z,98933.84
2022-09-14T20:26:44.543Z,98934.66
2022-09-14T20:29:12.261Z,98933.38
2022-09-14T20:31:39.723Z,98932.75
2022-09-14T20:34:09.950Z,98937.03
2022-09-14T20:36:39.689Z,98937.53
2022-09-14T20:39:10.018Z,98935.72
2022-09-14T20:41:37.473Z,98949.59
2022-09-14T20:44:07.034Z,98945.19
2022-09-14T20:46:38.354Z,98938.44
2022-09-14T20:49:08.677Z,98937.41
2022-09-14T20:51:36.656Z,98943.44
2022-09-14T20:54:08.132Z,98944.81
2022-09-14T20:56:36.676Z,98942.44
2022-09-14T20:59:09.426Z,98940.84
2022-09-14T21:01:38.749Z,98947.44
2022-09-14T21:04:08.911Z,98942.69
2022-09-14T21:06:37.625Z,98951.16
2022-09-14T21:09:05.188Z,98948.91
2022-09-14T21:11:34.662Z,98950.31
2022-09-14T21:14:02.308Z,98954.22
2022-09-14T21:16:32.892Z,98955.25
2022-09-14T21:19:02.264Z,98952.56
2022-09-14T21:21:30.043Z,98956.44
2022-09-14T21:23:58.646Z,98956.44
2022-09-14T21:26:26.816Z,98964.84
2022-09-14T21:28:56.218Z,98973.00
2022-09-14T21:31:24.426Z,98979.06
2022-09-14T21:33:55.158Z,98983.13
2022-09-14T21:36:24.325Z,98980.69
2022-09-14T21:38:52.986Z,98979.56
2022-09-14T21:41:21.472Z,98972.81
2022-09-14T21:43:49.001Z,98970.44
2022-09-14T21:46:18.612Z,98970.69
2022-09-14T21:48:46.933Z,98974.53
2022-09-14T21:51:18.785Z,98976.53
2022-09-14T21:53:47.342Z,98982.81
2022-09-14T21:56:15.043Z,98985.44
2022-09-14T21:58:42.537Z,98982.66
2022-09-14T22:01:10.096Z,98977.66
2022-09-14T22:03:38.826Z,98970.16
2022-09-14T22:06:08.088Z,98978.03
2022-09-14T22:08:36.990Z,98973.94
2022-09-14T22:11:05.561Z,98980.59
2022-09-14T22:13:33.036Z,98974.44
2022-09-14T22:16:07.862Z,98974.88
2022-09-14T22:18:35.720Z,98972.47
2022-09-14T22:21:03.479Z,98978.78
2022-09-14T22:23:31.178Z,98973.13
2022-09-14T22:26:03.578Z,98974.94
2022-09-14T22:28:31.100Z,98964.59
2022-09-14T22:30:58.609Z,98974.25
2022-09-14T22:33:26.060Z,98962.75
2022-09-14T22:35:54.738Z,98967.53
2022-09-14T22:38:22.603Z,98958.41
2022-09-14T22:40:55.341Z,98961.66
2022-09-14T22:43:25.137Z,98959.22
2022-09-14T22:45:52.917Z,98962.34
2022-09-14T22:48:21.051Z,98953.97
2022-09-14T22:50:52.898Z,98953.97
2022-09-14T22:53:21.393Z,98956.66
2022-09-14T22:55:48.834Z,98948.63
2022-09-14T22:58:17.788Z,98943.84
2022-09-14T23:00:47.296Z,98950.28
2022-09-14T23:03:16.029Z,98951.97
2022-09-14T23:05:50.182Z,98958.72
2022-09-14T23:08:18.169Z,98957.44
2022-09-14T23:10:46.018Z,98964.47
2022-09-14T23:13:13.413Z,98970.81
2022-09-14T23:15:44.114Z,98971.16
2022-09-14T23:18:13.423Z,98975.28
2022-09-14T23:20:42.586Z,98971.34
2022-09-14T23:23:10.794Z,98971.81
2022-09-14T23:25:41.114Z,98972.13
2022-09-14T23:28:10.876Z,98968.50
2022-09-14T23:30:38.877Z,98986.28
2022-09-14T23:33:06.593Z,98970.66
2022-09-14T23:35:37.707Z,98981.84
2022-09-14T23:38:05.493Z,98985.16
2022-09-14T23:40:32.963Z,98991.63
2022-09-14T23:43:00.421Z,98979.50
2022-09-14T23:45:27.825Z,98977.03
2022-09-14T23:47:55.690Z,98982.06
2022-09-14T23:50:23.576Z,98978.22
2022-09-14T23:52:57.133Z,98980.19
2022-09-14T23:55:24.666Z,98978.56
2022-09-14T23:57:52.125Z,98975.94
